createdAt,value
2023-11-12T00:00:11.135Z,0.53
2023-11-12T00:02:41.043Z,0.40
2023-11-12T00:05:13.294Z,0.50
2023-11-12T00:07:42.617Z,0.30
2023-11-12T00:10:13.570Z,0.30
2023-11-12T00:12:42.415Z,0.40
2023-11-12T00:15:11.667Z,0.20
2023-11-12T00:17:43.298Z,0.30
2023-11-12T00:20:14.380Z,0.20
2023-11-12T00:22:45.410Z,0.20
2023-11-12T00:25:15.173Z,0.43
2023-11-12T00:27:43.803Z,0.50
2023-11-12T00:30:12.920Z,0.70
2023-11-12T00:32:42.831Z,3.70
2023-11-12T00:35:13.529Z,0.90
2023-11-12T00:37:42.011Z,0.50
2023-11-12T00:40:12.380Z,0.50
2023-11-12T00:42:40.844Z,0.90
2023-11-12T00:45:10.767Z,0.27
2023-11-12T00:47:39.202Z,0.20
2023-11-12T00:50:11.298Z,0.30
2023-11-12T00:52:39.775Z,0.20
2023-11-12T00:55:08.816Z,0.30
2023-11-12T00:57:37.391Z,0.40
2023-11-12T01:00:07.280Z,0.20
2023-11-12T01:02:35.821Z,0.30
2023-11-12T01:05:04.624Z,0.20
2023-11-12T01:07:34.447Z,0.30
2023-11-12T01:10:03.010Z,0.20
2023-11-12T01:12:31.638Z,0.20
2023-11-12T01:15:00.202Z,0.30
2023-11-12T01:17:29.178Z,0.20
2023-11-12T01:19:57.867Z,0.20
2023-11-12T01:22:26.330Z,0.20
2023-11-12T01:24:56.221Z,0.20
2023-11-12T01:27:24.850Z,0.30
2023-11-12T01:29:53.282Z,0.20
2023-11-12T01:32:21.776Z,0.20
2023-11-12T01:34:50.243Z,0.40
2023-11-12T01:37:18.719Z,0.20
2023-11-12T01:39:48.396Z,0.30
2023-11-12T01:42:18.217Z,0.20
2023-11-12T01:44:46.784Z,0.20
2023-11-12T01:47:18.288Z,0.30
2023-11-12T01:49:46.869Z,0.20
2023-11-12T01:52:18.998Z,0.20
2023-11-12T01:54:47.560Z,0.40
2023-11-12T01:57:17.567Z,0.20
2023-11-12T01:59:46.069Z,0.30
2023-11-12T02:02:15.080Z,0.20
2023-11-12T02:04:44.395Z,0.20
2023-11-12T02:07:13.913Z,0.30
2023-11-12T02:09:42.566Z,0.40
2023-11-12T02:12:11.555Z,0.50
2023-11-12T02:14:41.601Z,0.50
2023-11-12T02:17:10.027Z,0.30
2023-11-12T02:19:38.495Z,0.40
2023-11-12T02:22:06.982Z,0.30
2023-11-12T02:24:36.967Z,0.30
2023-11-12T02:27:05.447Z,1.10
2023-11-12T02:29:33.875Z,0.30
2023-11-12T02:32:02.382Z,0.30
2023-11-12T02:34:31.293Z,0.30
2023-11-12T02:36:59.676Z,0.20
2023-11-12T02:39:28.147Z,0.40
2023-11-12T02:42:00.110Z,0.20
2023-11-12T02:44:28.495Z,0.20
2023-11-12T02:46:56.920Z,0.30
2023-11-12T02:49:43.897Z,0.27
2023-11-12T02:52:12.434Z,0.30
2023-11-12T02:54:40.918Z,0.30
2023-11-12T02:57:11.741Z,0.33
2023-11-12T02:59:40.850Z,0.30
2023-11-12T03:02:09.292Z,0.30
2023-11-12T03:04:37.718Z,0.27
2023-11-12T03:07:06.420Z,0.63
2023-11-12T03:09:35.321Z,0.20
2023-11-12T03:12:04.265Z,0.20
2023-11-12T03:14:34.871Z,0.20
2023-11-12T03:17:03.223Z,0.30
2023-11-12T03:19:31.655Z,0.20
2023-11-12T03:22:00.183Z,0.30
2023-11-12T03:24:28.684Z,0.40
2023-11-12T03:26:57.049Z,0.70
2023-11-12T03:29:25.512Z,0.40
2023-11-12T03:31:56.352Z,0.30
2023-11-12T03:34:26.143Z,0.20
2023-11-12T03:36:54.701Z,0.30
2023-11-12T03:39:24.107Z,0.90
2023-11-12T03:41:53.206Z,0.50
2023-11-12T03:44:21.662Z,0.20
2023-11-12T03:46:50.153Z,0.37
2023-11-12T03:49:20.513Z,0.50
2023-11-12T03:51:49.223Z,0.37
2023-11-12T03:54:17.916Z,0.50
2023-11-12T03:56:46.317Z,0.37
2023-11-12T03:59:14.736Z,0.20
2023-11-12T04:01:43.072Z,0.30
2023-11-12T04:04:11.657Z,0.30
2023-11-12T04:06:41.559Z,0.53
2023-11-12T04:09:10.290Z,0.20
2023-11-12T04:11:41.664Z,0.20
2023-11-12T04:14:10.672Z,0.30
2023-11-12T04:16:39.207Z,0.40
2023-11-12T04:19:08.844Z,0.30
2023-11-12T04:21:37.758Z,0.30
2023-11-12T04:24:09.285Z,0.30
2023-11-12T04:26:37.847Z,0.30
2023-11-12T04:29:08.620Z,0.20
2023-11-12T04:31:37.963Z,0.40
2023-11-12T04:34:06.672Z,0.30
2023-11-12T04:36:37.212Z,0.40
2023-11-12T04:39:07.293Z,0.20
2023-11-12T04:41:37.464Z,0.20
2023-11-12T04:44:06.739Z,0.40
2023-11-12T04:46:35.156Z,0.30
2023-11-12T04:49:03.626Z,0.33
2023-11-12T04:51:34.155Z,0.30
2023-11-12T04:54:03.835Z,0.20
2023-11-12T04:56:32.276Z,0.20
2023-11-12T04:59:02.116Z,1.37
2023-11-12T05:01:31.812Z,0.20
2023-11-12T05:04:00.503Z,0.30
2023-11-12T05:06:30.997Z,0.37
2023-11-12T05:08:59.668Z,0.73
2023-11-12T05:11:28.245Z,0.80
2023-11-12T05:13:56.934Z,0.40
2023-11-12T05:16:26.783Z,0.40
2023-11-12T05:18:55.337Z,0.50
2023-11-12T05:21:23.850Z,1.07
2023-11-12T05:23:52.273Z,0.57
2023-11-12T05:26:20.655Z,0.40
2023-11-12T05:28:49.289Z,0.83
2023-11-12T05:31:17.819Z,0.30
2023-11-12T05:33:47.758Z,1.07
2023-11-12T05:36:16.134Z,0.30
2023-11-12T05:38:44.447Z,1.13
2023-11-12T05:41:13.063Z,0.77
2023-11-12T05:43:41.457Z,0.97
2023-11-12T05:46:10.215Z,0.40
2023-11-12T05:48:38.703Z,0.60
2023-11-12T05:51:10.527Z,1.33
2023-11-12T05:53:39.430Z,0.60
2023-11-12T05:56:08.805Z,0.73
2023-11-12T05:58:37.154Z,0.50
2023-11-12T06:01:05.848Z,0.40
2023-11-12T06:03:34.332Z,0.57
2023-11-12T06:06:02.838Z,0.47
2023-11-12T06:08:32.823Z,0.30
2023-11-12T06:11:02.729Z,1.00
2023-11-12T06:13:31.065Z,0.30
2023-11-12T06:15:59.886Z,0.30
2023-11-12T06:18:28.816Z,0.40
2023-11-12T06:20:57.283Z,0.40
2023-11-12T06:23:26.146Z,0.30
2023-11-12T06:25:56.039Z,0.40
2023-11-12T06:28:24.747Z,0.20
2023-11-12T06:30:55.293Z,0.30
2023-11-12T06:33:23.921Z,0.30
2023-11-12T06:35:52.880Z,1.03
2023-11-12T06:38:21.347Z,0.80
2023-11-12T06:40:49.888Z,0.93
2023-11-12T06:43:19.618Z,0.60
2023-11-12T06:45:48.169Z,0.40
2023-11-12T06:48:17.824Z,0.50
2023-11-12T06:50:46.292Z,0.50
2023-11-12T06:53:14.831Z,0.50
2023-11-12T06:55:43.429Z,0.47
2023-11-12T06:58:12.007Z,0.30
2023-11-12T07:00:42.963Z,0.50
2023-11-12T07:03:11.761Z,0.57
2023-11-12T07:05:40.306Z,0.53
2023-11-12T07:08:09.511Z,0.50
2023-11-12T07:10:39.257Z,0.50
2023-11-12T07:13:07.696Z,1.27
2023-11-12T07:15:36.256Z,1.03
2023-11-12T07:18:06.377Z,0.90
2023-11-12T07:20:34.906Z,0.67
2023-11-12T07:23:03.478Z,0.70
2023-11-12T07:25:32.187Z,1.50
2023-11-12T07:28:00.823Z,1.23
2023-11-12T07:30:29.318Z,1.23
2023-11-12T07:32:57.960Z,2.90
2023-11-12T07:35:28.195Z,1.60
2023-11-12T07:37:56.677Z,1.57
2023-11-12T07:40:27.635Z,1.77
2023-11-12T07:42:56.666Z,0.80
2023-11-12T07:45:31.695Z,0.40
2023-11-12T07:48:03.276Z,1.10
2023-11-12T07:50:33.330Z,0.83
2023-11-12T07:53:01.742Z,0.53
2023-11-12T07:55:32.784Z,0.73
2023-11-12T07:58:01.902Z,0.40
2023-11-12T08:00:30.398Z,0.50
2023-11-12T08:02:59.978Z,0.60
2023-11-12T08:05:28.526Z,0.20
2023-11-12T08:07:58.392Z,0.50
2023-11-12T08:10:26.765Z,0.83
2023-11-12T08:12:55.193Z,0.70
2023-11-12T08:15:23.820Z,0.50
2023-11-12T08:17:52.271Z,0.30
2023-11-12T08:20:20.711Z,0.20
2023-11-12T08:22:49.080Z,0.27
2023-11-12T08:25:18.927Z,0.40
2023-11-12T08:27:47.488Z,0.60
2023-11-12T08:30:16.410Z,0.53
2023-11-12T08:32:44.963Z,0.23
2023-11-12T08:35:14.103Z,0.30
2023-11-12T08:37:43.395Z,0.30
2023-11-12T08:40:13.063Z,0.30
2023-11-12T08:42:42.974Z,0.40
2023-11-12T08:45:11.710Z,0.30
2023-11-12T08:47:40.197Z,0.57
2023-11-12T08:50:09.473Z,0.80
2023-11-12T08:52:39.520Z,0.30
2023-11-12T08:55:08.905Z,0.53
2023-11-12T08:57:37.460Z,1.10
2023-11-12T09:00:09.488Z,1.13
2023-11-12T09:02:38.113Z,0.50
2023-11-12T09:05:07.261Z,0.30
2023-11-12T09:07:35.933Z,0.60
2023-11-12T09:10:05.953Z,0.70
2023-11-12T09:12:34.931Z,0.50
2023-11-12T09:15:03.679Z,0.50
2023-11-12T09:17:33.684Z,0.30
2023-11-12T09:20:02.169Z,0.53
2023-11-12T09:22:30.798Z,0.73
2023-11-12T09:25:08.859Z,0.87
2023-11-12T09:27:40.310Z,0.37
2023-11-12T09:30:10.532Z,0.37
2023-11-12T09:32:40.711Z,0.30
2023-11-12T09:35:10.721Z,0.63
2023-11-12T09:37:39.224Z,0.30
2023-11-12T09:40:11.565Z,0.47
2023-11-12T09:42:42.890Z,0.30
2023-11-12T09:45:12.373Z,0.40
2023-11-12T09:47:50.398Z,0.50
2023-11-12T09:50:21.726Z,0.30
2023-11-12T09:52:51.273Z,0.20
2023-11-12T09:55:21.142Z,0.30
2023-11-12T09:57:52.860Z,0.40
2023-11-12T10:00:21.643Z,0.40
2023-11-12T10:02:53.533Z,0.30
2023-11-12T10:05:22.828Z,0.30
2023-11-12T10:07:51.287Z,1.23
2023-11-12T10:10:23.748Z,0.73
2023-11-12T10:12:53.781Z,0.40
2023-11-12T10:15:26.608Z,0.20
2023-11-12T10:18:01.022Z,0.20
2023-11-12T10:20:32.626Z,0.50
2023-11-12T10:23:03.210Z,0.40
2023-11-12T10:25:41.598Z,0.63
2023-11-12T10:28:11.988Z,0.50
2023-11-12T10:30:40.984Z,0.30
2023-11-12T10:33:25.245Z,0.50
2023-11-12T10:35:56.031Z,0.53
2023-11-12T10:38:25.213Z,0.30
2023-11-12T10:41:02.184Z,0.43
2023-11-12T10:43:31.826Z,0.57
2023-11-12T10:46:01.888Z,0.50
2023-11-12T10:48:35.317Z,0.40
2023-11-12T10:51:07.099Z,0.50
2023-11-12T10:53:37.585Z,0.30
2023-11-12T10:56:08.078Z,0.73
2023-11-12T10:58:37.450Z,0.60
2023-11-12T11:01:08.931Z,0.30
2023-11-12T11:03:39.163Z,0.60
2023-11-12T11:06:09.774Z,0.73
2023-11-12T11:08:38.236Z,0.40
2023-11-12T11:11:11.486Z,1.20
2023-11-12T11:13:40.860Z,0.60
2023-11-12T11:16:11.380Z,0.60
2023-11-12T11:19:05.119Z,0.63
2023-11-12T11:21:33.602Z,0.33
2023-11-12T11:24:03.632Z,0.83
2023-11-12T11:26:40.364Z,0.20
2023-11-12T11:29:15.220Z,0.40
2023-11-12T11:32:18.763Z,0.40
2023-11-12T11:34:49.832Z,0.27
2023-11-12T11:37:20.991Z,0.30
2023-11-12T11:39:49.986Z,0.30
2023-11-12T11:42:19.007Z,0.30
2023-11-12T11:44:51.589Z,0.30
2023-11-12T11:47:24.647Z,0.30
2023-11-12T11:50:45.962Z,0.57
2023-11-12T11:53:16.501Z,0.30
2023-11-12T11:55:50.436Z,0.30
2023-11-12T11:58:22.613Z,0.20
2023-11-12T12:01:01.441Z,0.30
2023-11-12T12:03:30.681Z,0.70
2023-11-12T12:06:00.800Z,0.83
2023-11-12T12:08:29.565Z,2.63
2023-11-12T12:10:58.040Z,0.87
2023-11-12T12:13:28.161Z,0.43
2023-11-12T12:15:57.220Z,0.50
2023-11-12T12:18:26.655Z,0.53
2023-11-12T12:20:57.168Z,0.40
2023-11-12T12:23:27.514Z,0.50
2023-11-12T12:25:57.030Z,0.30
2023-11-12T12:28:31.641Z,1.13
2023-11-12T12:31:00.450Z,0.50
2023-11-12T12:33:28.934Z,0.40
2023-11-12T12:36:00.052Z,0.50
2023-11-12T12:38:29.965Z,0.70
2023-11-12T12:41:03.651Z,0.70
2023-11-12T12:43:46.893Z,0.70
2023-11-12T12:46:15.493Z,0.30
2023-11-12T12:48:54.080Z,0.30
2023-11-12T12:51:23.123Z,0.40
2023-11-12T12:53:54.037Z,0.60
2023-11-12T12:56:23.108Z,0.40
2023-11-12T12:58:51.611Z,0.80
2023-11-12T13:01:20.252Z,0.90
2023-11-12T13:03:49.795Z,0.30
2023-11-12T13:06:18.743Z,0.80
2023-11-12T13:08:48.983Z,0.70
2023-11-12T13:11:20.748Z,1.37
2023-11-12T13:13:51.468Z,0.40
2023-11-12T13:16:21.003Z,0.60
2023-11-12T13:18:49.708Z,0.60
2023-11-12T13:21:20.536Z,1.60
2023-11-12T13:23:50.626Z,0.50
2023-11-12T13:26:22.652Z,1.90
2023-11-12T13:28:53.442Z,1.60
2023-11-12T13:31:24.987Z,0.57
2023-11-12T13:33:53.614Z,1.10
2023-11-12T13:36:22.169Z,0.97
2023-11-12T13:38:50.566Z,1.00
2023-11-12T13:41:23.120Z,1.37
2023-11-12T13:43:53.055Z,0.70
2023-11-12T13:46:23.162Z,0.97
2023-11-12T13:48:54.699Z,1.03
2023-11-12T13:51:25.741Z,1.17
2023-11-12T13:53:55.041Z,1.20
2023-11-12T13:56:25.675Z,1.13
2023-11-12T13:58:56.184Z,1.00
2023-11-12T14:01:25.742Z,1.50
2023-11-12T14:03:54.431Z,0.53
2023-11-12T14:06:23.238Z,1.43
2023-11-12T14:08:52.895Z,0.90
2023-11-12T14:11:22.242Z,1.30
2023-11-12T14:13:52.456Z,1.80
2023-11-12T14:16:24.656Z,1.73
2023-11-12T14:18:54.886Z,1.23
2023-11-12T14:21:23.900Z,1.80
2023-11-12T14:23:52.344Z,1.50
2023-11-12T14:26:21.307Z,4.67
2023-11-12T14:28:53.908Z,2.43
2023-11-12T14:31:23.905Z,2.13
2023-11-12T14:33:52.512Z,1.00
2023-11-12T14:36:20.937Z,0.93
2023-11-12T14:38:49.769Z,0.50
2023-11-12T14:41:20.047Z,1.00
2023-11-12T14:43:49.513Z,1.03
2023-11-12T14:46:21.073Z,0.83
2023-11-12T14:48:51.127Z,1.27
2023-11-12T14:51:19.740Z,1.00
2023-11-12T14:53:57.174Z,0.60
2023-11-12T14:56:32.583Z,1.30
2023-11-12T14:59:01.091Z,1.60
2023-11-12T15:01:29.506Z,0.77
2023-11-12T15:03:59.676Z,0.50
2023-11-12T15:06:28.647Z,1.80
2023-11-12T15:08:57.944Z,0.90
2023-11-12T15:11:26.342Z,1.83
2023-11-12T15:13:54.740Z,1.47
2023-11-12T15:16:26.783Z,0.60
2023-11-12T15:18:55.382Z,3.40
2023-11-12T15:21:25.536Z,2.30
2023-11-12T15:23:54.576Z,1.40
2023-11-12T15:26:22.938Z,3.33
2023-11-12T15:28:52.205Z,0.83
2023-11-12T15:31:20.929Z,4.10
2023-11-12T15:33:49.637Z,1.63
2023-11-12T15:36:18.148Z,2.73
2023-11-12T15:38:48.037Z,2.87
2023-11-12T15:41:16.510Z,2.33
2023-11-12T15:43:44.842Z,2.67
2023-11-12T15:46:14.102Z,1.10
2023-11-12T15:48:42.992Z,1.70
2023-11-12T15:51:11.451Z,1.27
2023-11-12T15:53:39.814Z,1.70
2023-11-12T15:56:10.530Z,1.13
2023-11-12T15:58:39.012Z,3.13
2023-11-12T16:01:08.055Z,0.90
2023-11-12T16:03:38.183Z,1.23
2023-11-12T16:06:07.244Z,1.57
2023-11-12T16:08:37.755Z,2.23
2023-11-12T16:11:07.242Z,2.53
2023-11-12T16:13:37.169Z,2.00
2023-11-12T16:16:07.083Z,3.87
2023-11-12T16:18:35.632Z,3.90
2023-11-12T16:21:06.459Z,2.23
2023-11-12T16:23:34.816Z,2.77
2023-11-12T16:26:03.236Z,3.73
2023-11-12T16:28:31.848Z,4.70
2023-11-12T16:31:05.148Z,4.10
2023-11-12T16:33:33.792Z,3.13
2023-11-12T16:36:02.176Z,3.53
2023-11-12T16:38:32.565Z,2.50
2023-11-12T16:41:00.940Z,3.97
2023-11-12T16:43:29.332Z,2.50
2023-11-12T16:45:59.495Z,0.83
2023-11-12T16:48:29.530Z,1.40
2023-11-12T16:50:58.070Z,1.00
2023-11-12T16:53:26.517Z,1.00
2023-11-12T16:55:55.475Z,1.40
2023-11-12T16:58:23.937Z,1.10
2023-11-12T17:00:53.089Z,0.87
2023-11-12T17:03:23.167Z,1.20
2023-11-12T17:05:53.142Z,2.07
2023-11-12T17:08:21.552Z,1.43
2023-11-12T17:10:49.879Z,2.27
2023-11-12T17:13:18.429Z,1.70
2023-11-12T17:15:46.835Z,3.03
2023-11-12T17:18:16.339Z,4.53
2023-11-12T17:20:45.085Z,2.40
2023-11-12T17:23:15.021Z,1.90
2023-11-12T17:25:43.447Z,2.57
2023-11-12T17:28:12.419Z,1.20
2023-11-12T17:30:40.811Z,2.30
2023-11-12T17:33:09.281Z,3.67
2023-11-12T17:35:40.170Z,0.93
2023-11-12T17:38:08.742Z,2.47
2023-11-12T17:40:38.665Z,2.20
2023-11-12T17:43:07.094Z,2.47
2023-11-12T17:45:35.567Z,3.90
2023-11-12T17:48:05.073Z,1.80
2023-11-12T17:50:34.268Z,1.80
2023-11-12T17:53:02.749Z,0.77
2023-11-12T17:55:31.276Z,2.20
2023-11-12T17:58:01.240Z,0.80
2023-11-12T18:00:30.586Z,1.13
2023-11-12T18:02:59.209Z,0.90
2023-11-12T18:05:27.925Z,0.50
2023-11-12T18:07:56.514Z,0.80
2023-11-12T18:10:24.979Z,0.57
2023-11-12T18:12:53.385Z,0.83
2023-11-12T18:15:23.224Z,0.80
2023-11-12T18:17:51.765Z,1.03
2023-11-12T18:20:20.692Z,1.07
2023-11-12T18:22:49.176Z,0.50
2023-11-12T18:25:18.066Z,0.30
2023-11-12T18:27:46.639Z,0.70
2023-11-12T18:30:16.777Z,0.70
2023-11-12T18:32:46.610Z,0.57
2023-11-12T18:35:15.310Z,0.47
2023-11-12T18:37:43.690Z,0.50
2023-11-12T18:40:17.017Z,0.63
2023-11-12T18:42:45.897Z,0.50
2023-11-12T18:45:17.638Z,0.60
2023-11-12T18:47:48.199Z,0.30
2023-11-12T18:50:19.406Z,0.30
2023-11-12T18:52:48.428Z,0.40
2023-11-12T18:55:17.066Z,0.40
2023-11-12T18:57:46.382Z,0.47
2023-11-12T19:00:16.475Z,0.40
2023-11-12T19:02:45.005Z,0.30
2023-11-12T19:05:15.067Z,0.30
2023-11-12T19:07:44.944Z,0.60
2023-11-12T19:10:13.476Z,0.67
2023-11-12T19:12:42.995Z,0.40
2023-11-12T19:15:13.563Z,0.43
2023-11-12T19:17:45.317Z,1.00
2023-11-12T19:20:16.714Z,0.77
2023-11-12T19:22:45.858Z,0.30
2023-11-12T19:25:16.208Z,1.47
2023-11-12T19:27:45.717Z,0.30
2023-11-12T19:30:16.448Z,0.80
2023-11-12T19:32:46.467Z,0.60
2023-11-12T19:35:19.975Z,0.67
2023-11-12T19:37:48.464Z,0.30
2023-11-12T19:40:19.142Z,0.50
2023-11-12T19:42:50.294Z,0.63
2023-11-12T19:45:20.740Z,1.13
2023-11-12T19:47:53.465Z,0.50
2023-11-12T19:50:24.543Z,0.67
2023-11-12T19:52:53.163Z,0.80
2023-11-12T19:55:22.578Z,0.70
2023-11-12T19:57:53.972Z,0.40
2023-11-12T20:00:23.494Z,0.63
2023-11-12T20:02:52.966Z,0.53
2023-11-12T20:05:23.365Z,1.00
2023-11-12T20:07:52.098Z,0.60
2023-11-12T20:10:20.924Z,0.60
2023-11-12T20:12:51.087Z,0.30
2023-11-12T20:15:20.614Z,0.50
2023-11-12T20:17:49.598Z,0.50
2023-11-12T20:20:18.012Z,0.83
2023-11-12T20:22:47.925Z,0.37
2023-11-12T20:25:16.609Z,0.30
2023-11-12T20:27:46.258Z,0.30
2023-11-12T20:30:16.443Z,1.03
2023-11-12T20:32:45.213Z,0.33
2023-11-12T20:35:13.945Z,0.30
2023-11-12T20:37:44.702Z,0.40
2023-11-12T20:40:15.486Z,0.30
2023-11-12T20:42:44.504Z,0.50
2023-11-12T20:45:18.548Z,0.30
2023-11-12T20:47:52.260Z,0.70
2023-11-12T20:50:21.187Z,0.40
2023-11-12T20:52:50.501Z,0.40
2023-11-12T20:55:20.494Z,0.50
2023-11-12T20:57:51.105Z,0.30
2023-11-12T21:00:22.635Z,0.57
2023-11-12T21:02:52.725Z,0.40
2023-11-12T21:05:22.154Z,0.30
2023-11-12T21:07:50.998Z,0.40
2023-11-12T21:10:22.744Z,0.40
2023-11-12T21:12:51.499Z,0.30
2023-11-12T21:15:20.177Z,0.80
2023-11-12T21:17:48.733Z,1.80
2023-11-12T21:20:18.437Z,0.40
2023-11-12T21:22:46.932Z,0.30
2023-11-12T21:25:18.427Z,0.70
2023-11-12T21:27:48.743Z,1.73
2023-11-12T21:30:22.605Z,0.60
2023-11-12T21:32:51.195Z,0.50
2023-11-12T21:35:21.099Z,0.40
2023-11-12T21:37:49.687Z,0.40
2023-11-12T21:40:18.955Z,0.37
2023-11-12T21:42:48.910Z,0.40
2023-11-12T21:45:17.511Z,0.50
2023-11-12T21:47:47.054Z,0.30
2023-11-12T21:50:17.245Z,0.40
2023-11-12T21:52:46.142Z,0.40
2023-11-12T21:55:14.873Z,0.40
2023-11-12T21:57:44.006Z,0.40
2023-11-12T22:00:15.882Z,0.50
2023-11-12T22:02:44.431Z,0.87
2023-11-12T22:05:13.693Z,0.70
2023-11-12T22:07:42.478Z,0.30
2023-11-12T22:10:13.410Z,0.53
2023-11-12T22:12:42.173Z,0.30
2023-11-12T22:15:14.902Z,0.20
2023-11-12T22:17:48.725Z,1.97
2023-11-12T22:20:18.620Z,0.40
2023-11-12T22:22:48.536Z,0.30
2023-11-12T22:25:17.827Z,0.60
2023-11-12T22:27:47.823Z,0.50
2023-11-12T22:30:17.386Z,0.40
2023-11-12T22:32:50.047Z,0.30
2023-11-12T22:35:19.238Z,0.30
2023-11-12T22:37:48.494Z,0.30
2023-11-12T22:40:19.060Z,0.40
2023-11-12T22:42:47.659Z,0.40
2023-11-12T22:45:16.843Z,0.30
2023-11-12T22:47:48.366Z,0.30
2023-11-12T22:50:18.797Z,0.37
2023-11-12T22:52:47.434Z,0.30
2023-11-12T22:55:16.366Z,0.40
2023-11-12T22:57:45.339Z,0.30
2023-11-12T23:02:58.903Z,0.20
2023-11-12T23:05:27.500Z,0.27
2023-11-12T23:07:55.834Z,0.30
2023-11-12T23:10:25.180Z,0.20
2023-11-12T23:12:53.766Z,0.30
2023-11-12T23:15:22.638Z,0.30
2023-11-12T23:17:51.137Z,0.40
2023-11-12T23:20:22.804Z,0.20
2023-11-12T23:22:51.325Z,0.30
2023-11-12T23:25:20.610Z,0.20
2023-11-12T23:27:49.681Z,0.30
2023-11-12T23:30:18.606Z,0.30
2023-11-12T23:32:47.113Z,0.40
2023-11-12T23:35:15.947Z,0.30
2023-11-12T23:37:45.783Z,0.30
2023-11-12T23:40:16.256Z,0.20
2023-11-12T23:42:44.691Z,0.30
2023-11-12T23:45:13.374Z,0.30
2023-11-12T23:47:42.191Z,0.20
2023-11-12T23:50:11.606Z,0.20
2023-11-12T23:52:39.998Z,0.20
2023-11-12T23:55:11.525Z,0.30
2023-11-12T23:57:41.905Z,0.30
